createdAt,value
2022-11-25T00:01:37.080Z,2.45
2022-11-25T00:04:04.226Z,1.80
2022-11-25T00:06:33.727Z,1.60
2022-11-25T00:09:06.626Z,2.17
2022-11-25T00:11:39.592Z,2.30
2022-11-25T00:14:15.323Z,2.00
2022-11-25T00:16:46.727Z,2.40
2022-11-25T00:19:15.367Z,2.15
2022-11-25T00:21:42.867Z,2.00
2022-11-25T00:24:13.049Z,2.40
2022-11-25T00:26:39.850Z,2.40
2022-11-25T00:29:08.933Z,2.63
2022-11-25T00:31:38.517Z,2.33
2022-11-25T00:34:05.642Z,2.55
2022-11-25T00:36:35.043Z,2.70
2022-11-25T00:39:06.166Z,2.67
2022-11-25T00:41:51.896Z,2.33
2022-11-25T00:44:42.174Z,2.88
2022-11-25T00:47:20.947Z,2.50
2022-11-25T00:49:53.406Z,2.60
2022-11-25T00:52:25.736Z,3.10
2022-11-25T00:54:54.211Z,2.47
2022-11-25T00:57:24.731Z,2.47
2022-11-25T00:59:51.934Z,2.85
2022-11-25T01:02:19.367Z,2.58
2022-11-25T01:04:49.156Z,2.72
2022-11-25T01:07:16.620Z,2.78
2022-11-25T01:09:43.874Z,2.60
2022-11-25T01:12:10.598Z,3.30
2022-11-25T01:14:38.348Z,2.80
2022-11-25T01:17:05.848Z,3.08
2022-11-25T01:19:32.864Z,2.85
2022-11-25T01:22:00.208Z,2.50
2022-11-25T01:24:27.282Z,2.85
2022-11-25T01:26:55.966Z,3.00
2022-11-25T01:29:24.077Z,2.53
2022-11-25T01:31:51.547Z,2.97
2022-11-25T01:34:34.715Z,2.97
2022-11-25T01:37:09.646Z,2.30
2022-11-25T01:39:39.019Z,2.78
2022-11-25T01:42:11.857Z,2.45
2022-11-25T01:44:40.310Z,2.53
2022-11-25T01:47:07.432Z,2.47
2022-11-25T01:50:03.728Z,2.13
2022-11-25T01:52:35.058Z,2.15
2022-11-25T01:55:16.306Z,2.13
2022-11-25T01:57:48.839Z,2.58
2022-11-25T02:02:59.874Z,2.60
2022-11-25T02:05:38.447Z,1.80
2022-11-25T02:08:13.268Z,2.63
2022-11-25T02:10:42.505Z,2.78
2022-11-25T02:13:10.788Z,2.08
2022-11-25T02:15:37.625Z,2.50
2022-11-25T02:18:05.299Z,2.42
2022-11-25T02:20:32.614Z,2.38
2022-11-25T02:23:29.009Z,2.78
2022-11-25T02:25:55.969Z,2.13
2022-11-25T02:28:30.482Z,2.20
2022-11-25T02:30:58.954Z,2.30
2022-11-25T02:33:27.605Z,2.60
2022-11-25T02:36:01.226Z,2.08
2022-11-25T02:38:42.821Z,2.30
2022-11-25T02:41:24.003Z,2.42
2022-11-25T02:44:00.676Z,2.05
2022-11-25T02:46:29.970Z,2.45
2022-11-25T02:49:08.794Z,2.13
2022-11-25T02:51:37.085Z,1.95
2022-11-25T02:54:04.533Z,2.30
2022-11-25T02:56:34.164Z,2.17
2022-11-25T02:59:13.568Z,2.60
2022-11-25T03:01:40.926Z,2.20
2022-11-25T03:04:07.971Z,1.85
2022-11-25T03:06:35.408Z,1.75
2022-11-25T03:09:02.518Z,2.60
2022-11-25T03:11:48.515Z,2.95
2022-11-25T03:14:15.589Z,2.75
2022-11-25T03:16:45.698Z,2.80
2022-11-25T03:19:13.190Z,3.05
2022-11-25T03:21:39.977Z,1.80
2022-11-25T03:24:07.269Z,2.42
2022-11-25T03:26:35.008Z,2.10
2022-11-25T03:29:02.000Z,2.75
2022-11-25T03:31:29.166Z,2.97
2022-11-25T03:33:56.522Z,2.10
2022-11-25T03:36:23.375Z,2.67
2022-11-25T03:38:50.199Z,1.95
2022-11-25T03:41:17.529Z,1.45
2022-11-25T03:43:44.424Z,1.48
2022-11-25T03:46:11.284Z,1.60
2022-11-25T03:48:38.567Z,1.60
2022-11-25T03:51:05.474Z,2.30
2022-11-25T03:53:32.296Z,1.25
2022-11-25T03:55:59.534Z,1.20
2022-11-25T03:58:26.225Z,1.40
2022-11-25T04:00:55.499Z,1.60
2022-11-25T04:03:23.036Z,1.40
2022-11-25T04:05:49.887Z,1.27
2022-11-25T04:08:18.414Z,1.30
2022-11-25T04:10:45.838Z,1.42
2022-11-25T04:13:12.550Z,1.23
2022-11-25T04:15:45.951Z,1.30
2022-11-25T04:18:13.554Z,1.42
2022-11-25T04:20:40.616Z,1.30
2022-11-25T04:23:08.069Z,1.40
2022-11-25T04:25:36.280Z,1.38
2022-11-25T04:28:03.892Z,1.65
2022-11-25T04:30:31.065Z,1.42
2022-11-25T04:32:58.866Z,1.85
2022-11-25T04:35:25.807Z,2.13
2022-11-25T04:37:52.977Z,2.30
2022-11-25T04:40:20.000Z,1.92
2022-11-25T04:42:48.350Z,2.00
2022-11-25T04:45:24.092Z,1.95
2022-11-25T04:47:57.426Z,1.85
2022-11-25T04:50:34.475Z,2.60
2022-11-25T04:53:01.677Z,1.95
2022-11-25T04:55:28.584Z,2.85
2022-11-25T04:57:55.973Z,3.20
2022-11-25T05:00:23.211Z,3.17
2022-11-25T05:02:50.416Z,2.53
2022-11-25T05:05:17.469Z,2.30
2022-11-25T05:07:46.065Z,2.25
2022-11-25T05:10:13.312Z,2.60
2022-11-25T05:12:42.010Z,2.65
2022-11-25T05:15:09.747Z,2.42
2022-11-25T05:17:37.686Z,2.80
2022-11-25T05:20:14.571Z,1.88
2022-11-25T05:22:41.532Z,1.30
2022-11-25T05:25:09.083Z,1.38
2022-11-25T05:27:41.758Z,1.10
2022-11-25T05:30:12.237Z,1.20
2022-11-25T05:32:44.935Z,1.20
2022-11-25T05:35:21.207Z,1.55
2022-11-25T05:37:48.310Z,1.83
2022-11-25T05:40:16.430Z,1.92
2022-11-25T05:42:44.169Z,1.40
2022-11-25T05:45:11.919Z,1.90
2022-11-25T05:47:41.443Z,1.55
2022-11-25T05:58:41.106Z,3.40
2022-11-25T06:01:11.449Z,3.08
2022-11-25T06:03:57.904Z,3.50
2022-11-25T06:06:26.970Z,3.95
2022-11-25T06:09:00.416Z,2.70
2022-11-25T06:11:27.375Z,2.20
2022-11-25T06:16:44.563Z,1.40
2022-11-25T08:25:50.668Z,1.13
2022-11-25T08:28:17.977Z,1.15
2022-11-25T08:30:44.945Z,1.33
2022-11-25T08:35:56.199Z,1.05
2022-11-25T08:38:24.685Z,1.20
2022-11-25T08:40:53.289Z,1.10
2022-11-25T08:43:56.880Z,1.10
2022-11-25T08:49:27.132Z,1.08
2022-11-25T08:51:57.412Z,1.08
2022-11-25T08:54:30.841Z,1.27
2022-11-25T08:57:03.058Z,0.90
2022-11-25T08:59:31.150Z,1.10
2022-11-25T09:02:05.306Z,1.63
2022-11-25T09:05:13.795Z,1.10
2022-11-25T09:07:53.920Z,1.30
2022-11-25T09:10:37.711Z,1.10
2022-11-25T09:34:41.668Z,1.25
2022-11-25T09:37:44.574Z,1.15
2022-11-25T09:40:19.828Z,1.25
2022-11-25T09:43:51.785Z,1.50
2022-11-25T09:47:10.209Z,1.30
2022-11-25T09:50:06.563Z,1.30
2022-11-25T09:52:35.304Z,1.38
2022-11-25T09:55:18.232Z,1.20
2022-11-25T09:58:13.794Z,1.40
2022-11-25T10:06:12.049Z,1.00
2022-11-25T10:08:43.623Z,1.00
2022-11-25T10:11:53.200Z,1.40
2022-11-25T10:14:29.190Z,1.30
2022-11-25T10:17:18.904Z,1.17
2022-11-25T10:23:17.290Z,0.90
2022-11-25T10:25:51.996Z,1.15
2022-11-25T10:28:30.970Z,0.85
2022-11-25T10:32:01.078Z,1.40
2022-11-25T10:35:06.694Z,0.90
2022-11-25T10:37:53.469Z,1.00
2022-11-25T10:40:27.311Z,1.65
2022-11-25T10:47:12.152Z,1.15
2022-11-25T10:50:14.863Z,0.98
2022-11-25T10:52:57.478Z,0.68
2022-11-25T10:55:50.713Z,1.20
2022-11-25T10:58:29.597Z,1.00
2022-11-25T11:10:46.389Z,0.60
2022-11-25T11:13:36.759Z,1.42
2022-11-25T11:16:32.648Z,1.13
2022-11-25T11:22:01.172Z,0.80
2022-11-25T11:32:36.593Z,1.42
2022-11-25T11:44:57.348Z,1.35
2022-11-25T12:08:16.566Z,1.10
2022-11-25T12:11:46.107Z,1.13
2022-11-25T12:14:39.143Z,1.15
2022-11-25T12:22:14.056Z,1.63
2022-11-25T12:28:52.908Z,1.70
2022-11-25T12:31:27.976Z,1.70
2022-11-25T12:34:23.381Z,1.20
2022-11-25T12:37:50.703Z,1.80
2022-11-25T12:40:52.061Z,1.80
2022-11-25T12:47:51.885Z,1.67
2022-11-25T12:49:54.391Z,2.08
2022-11-25T12:52:42.710Z,3.20
2022-11-25T12:55:24.209Z,1.83
2022-11-25T12:58:42.139Z,2.20
2022-11-25T13:05:39.577Z,1.50
2022-11-25T13:09:00.550Z,1.65
2022-11-25T13:15:58.975Z,1.38
2022-11-25T13:18:16.501Z,1.23
2022-11-25T13:23:35.224Z,2.72
2022-11-25T13:26:30.464Z,1.92
2022-11-25T13:29:00.725Z,1.20
2022-11-25T13:34:39.978Z,1.30
2022-11-25T13:37:59.801Z,1.50
2022-11-25T13:40:33.569Z,1.55
2022-11-25T13:43:27.609Z,1.75
2022-11-25T13:46:15.430Z,1.73
2022-11-25T13:52:06.389Z,2.00
2022-11-25T14:01:09.524Z,1.85
2022-11-25T14:03:52.261Z,1.40
2022-11-25T14:07:05.617Z,2.03
2022-11-25T14:13:50.570Z,1.95
2022-11-25T14:17:31.049Z,1.98
2022-11-25T14:24:17.497Z,1.90
2022-11-25T14:30:15.108Z,2.38
2022-11-25T14:33:10.241Z,2.15
2022-11-25T14:52:43.092Z,2.42
2022-11-25T14:55:12.262Z,2.63
2022-11-25T14:58:58.546Z,3.97
2022-11-25T15:29:21.702Z,5.13
2022-11-25T15:31:52.584Z,8.10
2022-11-25T15:34:28.031Z,7.10
2022-11-25T15:36:55.037Z,7.10
2022-11-25T15:39:22.002Z,8.20
2022-11-25T15:42:26.920Z,11.50
2022-11-25T15:45:23.262Z,12.52
2022-11-25T15:47:51.642Z,11.32
2022-11-25T15:50:27.811Z,9.00
2022-11-25T15:52:58.454Z,9.70
2022-11-25T15:55:44.472Z,9.88
2022-11-25T15:58:20.839Z,6.30
2022-11-25T16:01:20.675Z,5.88
2022-11-25T16:03:55.604Z,5.00
2022-11-25T16:06:28.612Z,3.22
2022-11-25T16:08:58.412Z,3.75
2022-11-25T16:11:32.007Z,3.60
2022-11-25T16:14:37.112Z,4.10
2022-11-25T16:17:21.550Z,5.93
2022-11-25T16:19:52.331Z,6.15
2022-11-25T16:22:27.573Z,6.82
2022-11-25T16:25:02.156Z,9.57
2022-11-25T16:27:32.158Z,7.43
2022-11-25T16:30:06.543Z,6.45
2022-11-25T16:32:45.981Z,9.80
2022-11-25T16:35:20.370Z,10.05
2022-11-25T16:38:02.455Z,9.50
2022-11-25T16:40:42.800Z,8.02
2022-11-25T16:43:27.239Z,8.65
2022-11-25T16:45:55.768Z,9.13
2022-11-25T16:48:24.805Z,9.63
2022-11-25T16:51:12.323Z,12.20
2022-11-25T16:53:41.296Z,5.97
2022-11-25T16:56:18.992Z,6.10
2022-11-25T16:59:03.635Z,13.50
2022-11-25T17:01:34.157Z,16.15
2022-11-25T17:04:02.504Z,22.88
2022-11-25T17:06:34.971Z,25.23
2022-11-25T17:09:02.005Z,20.88
2022-11-25T17:11:51.076Z,14.77
2022-11-25T17:14:34.013Z,16.48
2022-11-25T17:17:02.001Z,17.67
2022-11-25T17:19:51.084Z,17.63
2022-11-25T17:22:20.793Z,25.95
2022-11-25T17:24:53.887Z,20.45
2022-11-25T17:28:06.187Z,20.73
2022-11-25T17:33:22.210Z,16.83
2022-11-25T17:35:49.399Z,17.35
2022-11-25T17:38:21.149Z,15.90
2022-11-25T17:40:48.607Z,17.27
2022-11-25T17:43:21.355Z,13.50
2022-11-25T17:45:50.972Z,14.00
2022-11-25T17:48:18.719Z,14.82
2022-11-25T17:53:40.212Z,13.27
2022-11-25T17:56:29.981Z,13.18
2022-11-25T17:59:01.860Z,12.88
2022-11-25T18:01:29.170Z,13.88
2022-11-25T18:03:56.201Z,15.85
2022-11-25T18:06:23.685Z,9.50
2022-11-25T18:08:50.716Z,10.75
2022-11-25T18:11:19.796Z,12.27
2022-11-25T18:13:48.594Z,9.27
2022-11-25T18:16:19.581Z,12.63
2022-11-25T18:18:46.972Z,9.73
2022-11-25T18:21:17.049Z,13.05
2022-11-25T18:23:52.616Z,20.77
2022-11-25T18:26:24.045Z,15.10
2022-11-25T18:28:51.383Z,18.08
2022-11-25T18:31:19.129Z,16.55
2022-11-25T18:33:46.360Z,18.67
2022-11-25T18:36:14.335Z,16.48
2022-11-25T18:38:41.303Z,16.30
2022-11-25T18:41:17.290Z,13.20
2022-11-25T18:43:44.188Z,13.68
2022-11-25T18:46:12.623Z,11.93
2022-11-25T18:48:41.004Z,15.10
2022-11-25T18:51:12.338Z,15.48
2022-11-25T18:53:39.081Z,16.50
2022-11-25T18:56:06.186Z,15.88
2022-11-25T18:58:33.239Z,13.02
2022-11-25T19:01:06.043Z,13.93
2022-11-25T19:06:15.548Z,13.90
2022-11-25T19:08:42.887Z,14.00
2022-11-25T19:11:19.735Z,12.63
2022-11-25T19:13:55.604Z,12.30
2022-11-25T19:16:26.273Z,11.25
2022-11-25T19:18:57.318Z,8.13
2022-11-25T19:21:24.664Z,9.23
2022-11-25T19:23:51.547Z,10.77
2022-11-25T19:26:24.622Z,11.82
2022-11-25T19:28:58.487Z,11.50
2022-11-25T19:31:45.375Z,12.13
2022-11-25T19:34:26.357Z,11.48
2022-11-25T19:36:54.401Z,9.98
2022-11-25T19:39:21.366Z,10.02
2022-11-25T19:41:48.714Z,10.20
2022-11-25T19:44:16.175Z,11.13
2022-11-25T19:47:14.344Z,7.88
2022-11-25T19:49:40.436Z,6.75
2022-11-25T19:52:18.648Z,6.53
2022-11-25T19:54:49.961Z,5.90
2022-11-25T19:57:21.233Z,8.15
2022-11-25T19:59:50.085Z,6.95
2022-11-25T20:02:20.915Z,7.50
2022-11-25T20:04:52.049Z,6.60
2022-11-25T20:07:20.809Z,6.38
2022-11-25T20:09:49.553Z,8.98
2022-11-25T20:12:21.799Z,9.10
2022-11-25T20:14:49.831Z,9.10
2022-11-25T20:17:25.229Z,8.77
2022-11-25T20:19:57.649Z,8.68
2022-11-25T20:22:33.681Z,8.45
2022-11-25T20:25:07.831Z,10.32
2022-11-25T20:27:35.551Z,12.52
2022-11-25T20:30:03.114Z,8.48
2022-11-25T20:32:48.545Z,5.07
2022-11-25T20:35:16.967Z,5.82
2022-11-25T20:38:00.952Z,6.35
2022-11-25T20:40:38.355Z,5.68
2022-11-25T20:43:07.264Z,5.82
2022-11-25T20:45:34.432Z,6.65
2022-11-25T20:48:02.154Z,5.95
2022-11-25T20:50:30.973Z,9.38
2022-11-25T20:53:00.932Z,8.52
2022-11-25T20:55:32.586Z,7.03
2022-11-25T20:58:00.331Z,6.43
2022-11-25T21:00:29.427Z,6.35
2022-11-25T21:02:59.045Z,8.80
2022-11-25T21:05:28.006Z,5.03
2022-11-25T21:07:55.760Z,2.95
2022-11-25T21:10:29.676Z,3.65
2022-11-25T21:13:03.581Z,3.70
2022-11-25T21:15:30.810Z,2.85
2022-11-25T21:18:00.412Z,2.75
2022-11-25T21:20:29.787Z,2.45
2022-11-25T21:23:08.891Z,2.22
2022-11-25T21:25:42.393Z,2.25
2022-11-25T21:28:17.903Z,1.80
2022-11-25T21:30:47.231Z,2.22
2022-11-25T21:33:15.241Z,2.58
2022-11-25T21:35:47.319Z,2.67
2022-11-25T21:38:39.065Z,4.20
2022-11-25T21:41:06.503Z,3.72
2022-11-25T21:43:34.256Z,2.05
2022-11-25T21:48:48.607Z,2.13
2022-11-25T21:51:26.556Z,2.25
2022-11-25T21:53:54.257Z,2.30
2022-11-25T21:56:24.110Z,2.30
2022-11-25T21:58:52.149Z,2.90
2022-11-25T22:01:23.988Z,2.00
2022-11-25T22:03:51.232Z,2.05
2022-11-25T22:09:13.093Z,1.40
2022-11-25T22:12:03.153Z,1.80
2022-11-25T22:14:52.767Z,1.67
2022-11-25T22:17:21.865Z,1.65
2022-11-25T22:19:52.944Z,2.05
2022-11-25T22:22:36.781Z,2.03
2022-11-25T22:25:11.991Z,1.88
2022-11-25T22:27:39.700Z,2.17
2022-11-25T22:30:07.483Z,2.00
2022-11-25T22:32:34.605Z,2.10
2022-11-25T22:35:02.038Z,3.15
2022-11-25T22:37:29.055Z,2.80
2022-11-25T22:39:55.976Z,2.50
2022-11-25T22:42:31.266Z,2.08
2022-11-25T22:45:00.692Z,2.33
2022-11-25T22:47:33.293Z,2.75
2022-11-25T22:50:02.696Z,2.53
2022-11-25T22:52:32.169Z,1.80
2022-11-25T22:55:03.158Z,2.17
2022-11-25T22:57:30.310Z,1.60
2022-11-25T22:59:57.036Z,1.60
2022-11-25T23:02:32.190Z,2.03
2022-11-25T23:05:02.273Z,2.10
2022-11-25T23:07:49.206Z,1.83
2022-11-25T23:10:20.263Z,1.60
2022-11-25T23:12:47.361Z,1.20
2022-11-25T23:15:16.399Z,1.95
2022-11-25T23:17:48.264Z,2.13
2022-11-25T23:20:22.436Z,1.75
2022-11-25T23:22:49.251Z,1.77
2022-11-25T23:25:19.177Z,1.52
2022-11-25T23:27:46.159Z,1.27
2022-11-25T23:30:18.507Z,1.85
2022-11-25T23:32:46.148Z,4.35
2022-11-25T23:35:16.559Z,3.78
2022-11-25T23:37:44.042Z,3.42
2022-11-25T23:40:19.156Z,2.90
2022-11-25T23:42:46.142Z,3.10
2022-11-25T23:45:18.613Z,2.55
2022-11-25T23:47:47.636Z,1.55
2022-11-25T23:50:27.022Z,2.20
2022-11-25T23:53:01.656Z,1.70
2022-11-25T23:55:35.271Z,2.15
2022-11-25T23:58:04.599Z,2.15
